Time;durP1;ratioP1;P1;durP2;ratioP2;P2;SDS_P1;SDS_P2;PMS_P1;PMS_P2;Temp;Humidity;BMP_temperature;BMP_pressure;BME280_temperature;BME280_humidity;BME280_pressure;Samples;Min_cycle;Max_cycle;Signal;HPM_P1;HPM_P2
2022/01/03 00:01:22;;;;;;;;;4.33;4.00;;;;;-147.17;100.00;50007.41;5038101;28;51138;-62
2022/01/03 00:03:47;;;;;;;;;3.00;2.33;;;;;-147.17;100.00;50019.22;5052937;28;51366;-62
2022/01/03 00:06:14;;;;;;;;;2.00;2.00;;;;;-147.17;100.00;49989.69;5053573;28;51268;-62
2022/01/03 00:08:43;;;;;;;;;5.67;4.00;;;;;-147.17;100.00;49981.81;5051582;28;52040;-62
2022/01/03 00:11:11;;;;;;;;;6.00;4.00;;;;;-147.17;100.00;49997.56;5053713;28;51060;-62
2022/01/03 00:13:41;;;;;;;;;6.33;4.00;;;;;-147.17;100.00;49985.75;5050545;28;51044;-62
2022/01/03 00:16:07;;;;;;;;;4.00;3.00;;;;;-147.17;100.00;50021.19;5054517;28;51446;-62
2022/01/03 00:18:32;;;;;;;;;3.00;2.00;;;;;-147.17;100.00;50009.38;5053642;28;52197;-62
2022/01/03 00:21:00;;;;;;;;;3.00;2.00;;;;;-147.17;100.00;50046.78;5053212;28;51060;-62
2022/01/03 00:23:28;;;;;;;;;3.67;2.00;;;;;-147.17;100.00;50066.47;5053929;28;51011;-62
2022/01/03 00:25:58;;;;;;;;;3.33;2.00;;;;;-147.17;100.00;49985.75;5053323;28;50990;-62
2022/01/03 00:28:31;;;;;;;;;5.33;3.00;;;;;-147.17;100.00;50001.50;5053292;28;51147;-62
2022/01/03 00:30:57;;;;;;;;;3.67;2.67;;;;;-147.17;100.00;49979.84;5052913;28;50963;-62
2022/01/03 00:33:24;;;;;;;;;5.33;4.00;;;;;-147.17;100.00;49995.59;5053523;28;50926;-62
2022/01/03 00:36:03;;;;;;;;;5.00;4.00;;;;;-147.17;100.00;50023.16;5053124;28;51029;-62
2022/01/03 00:38:34;;;;;;;;;15.75;14.75;;;;;-147.17;100.00;49966.06;5051616;28;51207;-62
2022/01/03 00:41:00;;;;;;;;;9.00;7.33;;;;;-147.17;100.00;50034.97;5053750;28;51090;-62
2022/01/03 00:43:27;;;;;;;;;8.00;7.00;;;;;-147.17;100.00;49981.81;5052731;28;51355;-62
2022/01/03 00:45:54;;;;;;;;;6.00;4.00;;;;;-147.17;100.00;50017.25;5054024;28;51085;-63
2022/01/03 00:48:20;;;;;;;;;3.67;3.00;;;;;-147.17;100.00;50015.28;5053722;28;52991;-62
2022/01/03 00:50:46;;;;;;;;;3.00;3.00;;;;;-147.17;100.00;49995.59;5051811;28;52390;-62
2022/01/03 00:53:12;;;;;;;;;8.67;6.33;;;;;-147.17;100.00;49973.94;5052519;28;51235;-62
2022/01/03 00:56:09;;;;;;;;;20.00;17.75;;;;;-147.17;100.00;49981.81;5053666;28;51412;-62
2022/01/03 00:58:49;;;;;;;;;4.33;3.33;;;;;-147.17;100.00;50011.34;5038176;28;52146;-62
2022/01/03 01:01:18;;;;;;;;;5.67;4.67;;;;;-147.17;100.00;49979.84;5053657;28;51254;-62
2022/01/03 01:03:48;;;;;;;;;2.67;2.00;;;;;-147.17;100.00;49971.97;5047548;28;51216;-62
2022/01/03 01:06:14;;;;;;;;;3.00;1.67;;;;;-147.17;100.00;49999.53;5053552;28;50974;-62
2022/01/03 01:08:41;;;;;;;;;5.00;4.00;;;;;-147.17;100.00;49981.81;5049743;28;52551;-62
2022/01/03 01:11:08;;;;;;;;;3.00;2.67;;;;;-147.17;100.00;49973.94;5048462;28;51333;-62
2022/01/03 01:13:39;;;;;;;;;5.67;3.67;;;;;-147.17;100.00;49977.88;5053147;28;51168;-62
2022/01/03 01:16:06;;;;;;;;;3.00;3.00;;;;;-147.17;100.00;50009.38;5040534;28;51049;-62
2022/01/03 01:18:36;;;;;;;;;5.33;4.00;;;;;-147.17;100.00;50003.47;5050536;28;50919;-62
2022/01/03 01:21:04;;;;;;;;;6.00;3.00;;;;;-147.17;100.00;49995.59;5053200;28;51042;-62
2022/01/03 01:23:30;;;;;;;;;3.00;2.00;;;;;-147.17;100.00;49954.25;5034136;28;51101;-62
2022/01/03 01:28:39;;;;;;;;;6.00;3.00;;;;;-147.17;100.00;49973.94;5050297;28;50988;-62
2022/01/03 01:31:05;;;;;;;;;2.67;1.67;;;;;-147.17;100.00;49977.88;5053444;28;50955;-62
2022/01/03 01:33:31;;;;;;;;;2.00;1.00;;;;;-147.17;100.00;49997.56;5049634;28;50967;-63
2022/01/03 01:36:00;;;;;;;;;1.67;1.67;;;;;-147.17;100.00;50001.50;5053400;28;51366;-62
2022/01/03 01:38:30;;;;;;;;;3.00;3.00;;;;;-147.17;100.00;50005.44;5053192;28;51875;-62
2022/01/03 01:40:58;;;;;;;;;3.00;3.00;;;;;-147.17;100.00;49983.78;5052101;28;51003;-62
2022/01/03 01:43:40;;;;;;;;;3.00;3.00;;;;;-147.17;100.00;49979.84;5030731;28;51073;-62
2022/01/03 01:46:21;;;;;;;;;3.00;3.00;;;;;-147.17;100.00;49973.94;5052142;28;50995;-62
2022/01/03 01:48:49;;;;;;;;;3.67;2.00;;;;;-147.17;100.00;49989.69;5052957;28;51878;-62
2022/01/03 01:51:17;;;;;;;;;4.00;2.00;;;;;-147.17;100.00;49968.03;5051865;28;51187;-62
2022/01/03 01:53:48;;;;;;;;;3.67;3.00;;;;;-147.17;100.00;49970.00;5050598;28;51259;-62
2022/01/03 01:56:19;;;;;;;;;5.67;5.67;;;;;-147.17;100.00;49985.75;5052633;28;51089;-62
2022/01/03 01:59:13;;;;;;;;;6.00;3.00;;;;;-147.17;100.00;49985.75;5051312;28;52977;-62
2022/01/03 02:02:04;;;;;;;;;4.33;3.00;;;;;-147.17;100.00;49985.75;5052874;28;51045;-63
2022/01/03 02:04:29;;;;;;;;;3.00;1.67;;;;;-147.17;100.00;49995.59;5046511;28;51276;-62
2022/01/03 02:07:04;;;;;;;;;3.00;3.00;;;;;-147.17;100.00;49977.88;5052927;28;51335;-62
2022/01/03 02:09:42;;;;;;;;;4.00;2.00;;;;;-147.17;100.00;49979.84;5052274;28;51780;-62
2022/01/03 02:12:16;;;;;;;;;4.00;2.00;;;;;-147.17;100.00;49942.44;5053057;28;51135;-62
2022/01/03 02:14:42;;;;;;;;;3.00;2.33;;;;;-147.17;100.00;49997.56;5050570;28;50986;-62
2022/01/03 02:17:08;;;;;;;;;4.33;3.33;;;;;-147.17;100.00;49985.75;5052266;28;51185;-64
2022/01/03 02:19:37;;;;;;;;;3.00;1.67;;;;;-147.17;100.00;49987.72;5052333;28;51911;-62
2022/01/03 02:22:03;;;;;;;;;5.00;4.67;;;;;-147.17;100.00;49987.72;5052873;28;51002;-62
2022/01/03 02:24:28;;;;;;;;;3.33;2.67;;;;;-147.17;100.00;49964.09;5041851;28;51179;-62
2022/01/03 02:26:54;;;;;;;;;6.00;4.00;;;;;-147.17;100.00;50001.50;5048319;28;51298;-62
2022/01/03 02:29:20;;;;;;;;;4.33;1.67;;;;;-147.17;100.00;50013.31;5052320;28;51857;-64
2022/01/03 02:31:45;;;;;;;;;4.00;2.67;;;;;-147.17;100.00;49968.03;5052721;28;51046;-62
2022/01/03 02:34:11;;;;;;;;;4.00;3.00;;;;;-147.17;100.00;49997.56;5052270;28;51380;-63
2022/01/03 02:36:37;;;;;;;;;3.00;1.67;;;;;-147.17;100.00;49977.88;5053319;28;51264;-62
2022/01/03 02:39:03;;;;;;;;;3.00;3.00;;;;;-147.17;100.00;49958.19;5051276;28;52819;-62
2022/01/03 02:41:28;;;;;;;;;3.67;2.00;;;;;-147.17;100.00;49999.53;5043717;28;51172;-63
2022/01/03 02:43:54;;;;;;;;;3.00;2.00;;;;;-147.17;100.00;49948.34;5051727;28;51122;-61
2022/01/03 02:46:20;;;;;;;;;3.67;3.67;;;;;-147.17;100.00;49954.25;5052675;28;51171;-63
2022/01/03 02:48:45;;;;;;;;;3.67;2.00;;;;;-147.17;100.00;49989.69;5049534;28;51001;-63
2022/01/03 02:51:11;;;;;;;;;3.67;2.00;;;;;-147.17;100.00;49973.94;5051220;28;51100;-63
2022/01/03 02:53:37;;;;;;;;;4.00;3.00;;;;;-147.17;100.00;49973.94;5051774;28;51228;-62
2022/01/03 02:56:03;;;;;;;;;4.33;1.67;;;;;-147.17;100.00;49979.84;5052329;28;50978;-60
2022/01/03 02:58:29;;;;;;;;;3.67;3.00;;;;;-147.17;100.00;49948.34;5049856;28;53270;-61
2022/01/03 03:00:54;;;;;;;;;7.00;5.33;;;;;-147.17;100.00;49940.47;5051178;28;50911;-61
2022/01/03 03:03:21;;;;;;;;;5.00;3.00;;;;;-147.17;100.00;49946.38;5049121;28;51267;-61
2022/01/03 03:05:47;;;;;;;;;5.00;3.00;;;;;-147.17;100.00;49936.53;5052605;28;51085;-61
2022/01/03 03:08:13;;;;;;;;;3.00;2.00;;;;;-147.17;100.00;49958.19;5052103;28;51769;-62
2022/01/03 03:10:40;;;;;;;;;2.00;2.00;;;;;-147.17;100.00;49952.28;5055481;28;51145;-62
2022/01/03 03:13:06;;;;;;;;;4.00;1.33;;;;;-147.17;100.00;49962.13;5054766;28;51310;-62
2022/01/03 03:15:33;;;;;;;;;4.67;2.00;;;;;-147.17;100.00;49942.44;5055820;28;50964;-61
2022/01/03 03:17:59;;;;;;;;;1.00;1.00;;;;;-147.17;100.00;49916.88;5054299;28;52871;-62
2022/01/03 03:20:27;;;;;;;;;3.00;2.00;;;;;-147.17;100.00;49938.50;5055606;28;50969;-62
2022/01/03 03:22:54;;;;;;;;;3.00;2.33;;;;;-147.17;100.00;49973.94;5054357;28;51161;-62
2022/01/03 03:25:22;;;;;;;;;5.33;2.67;;;;;-147.17;100.00;49966.06;5055149;28;51211;-62
2022/01/03 03:27:51;;;;;;;;;2.00;1.00;;;;;-147.17;100.00;49977.88;5053352;28;52219;-62
2022/01/03 03:30:22;;;;;;;;;5.33;3.00;;;;;-147.17;100.00;49938.50;5054068;28;51155;-62
2022/01/03 03:32:50;;;;;;;;;2.33;2.00;;;;;-147.17;100.00;49975.91;5054817;28;51124;-61
2022/01/03 03:35:16;;;;;;;;;2.67;1.00;;;;;-147.17;100.00;49938.50;5034238;28;51437;-62
2022/01/03 03:37:42;;;;;;;;;5.00;2.00;;;;;-147.17;100.00;49966.06;5054805;28;53637;-62
2022/01/03 03:40:07;;;;;;;;;2.00;1.67;;;;;-147.17;100.00;49946.38;5053984;28;51093;-62
2022/01/03 03:42:34;;;;;;;;;3.33;2.00;;;;;-147.17;100.00;49926.69;5055289;28;51093;-61
2022/01/03 03:44:59;;;;;;;;;2.33;2.00;;;;;-147.17;100.00;49938.50;5051636;28;51130;-61
2022/01/03 03:47:25;;;;;;;;;2.00;1.00;;;;;-147.17;100.00;49948.34;5054835;28;51686;-61
2022/01/03 03:49:50;;;;;;;;;2.67;2.00;;;;;-147.17;100.00;49968.03;5054464;28;51024;-62
2022/01/03 03:52:17;;;;;;;;;3.00;2.33;;;;;-147.17;100.00;49958.19;5055359;28;51426;-61
2022/01/03 03:54:42;;;;;;;;;3.67;2.67;;;;;-147.17;100.00;49948.34;5049730;28;51123;-61
2022/01/03 03:57:08;;;;;;;;;3.00;1.00;;;;;-147.17;100.00;49962.13;5054569;28;52146;-61
2022/01/03 03:59:34;;;;;;;;;4.00;1.67;;;;;-147.17;100.00;49940.47;5054084;28;51023;-62
2022/01/03 04:02:00;;;;;;;;;5.00;2.00;;;;;-147.17;100.00;49950.31;5055077;28;50842;-62
2022/01/03 04:04:26;;;;;;;;;2.00;2.00;;;;;-147.17;100.00;49922.78;5053445;28;50975;-61
2022/01/03 04:06:51;;;;;;;;;2.67;2.00;;;;;-147.17;100.00;49946.38;5054835;28;51575;-62
2022/01/03 04:09:16;;;;;;;;;5.00;2.00;;;;;-147.17;100.00;49950.31;5044822;28;50984;-62
2022/01/03 04:11:42;;;;;;;;;2.67;2.00;;;;;-147.17;100.00;49922.78;5047059;28;51053;-61
2022/01/03 04:14:07;;;;;;;;;1.33;1.33;;;;;-147.17;100.00;49903.09;5044252;28;51125;-62
2022/01/03 04:16:34;;;;;;;;;5.00;3.67;;;;;-147.17;100.00;49918.84;5054221;28;51160;-62
2022/01/03 04:19:00;;;;;;;;;3.67;2.67;;;;;-147.17;100.00;49930.63;5053471;28;51133;-62
2022/01/03 04:21:26;;;;;;;;;3.00;2.00;;;;;-147.17;100.00;49922.78;5054497;28;51118;-62
2022/01/03 04:23:52;;;;;;;;;4.67;2.33;;;;;-147.17;100.00;49916.88;5054141;28;50949;-62
2022/01/03 04:26:18;;;;;;;;;2.00;0.33;;;;;-147.17;100.00;49914.91;5052375;28;53740;-62
2022/01/03 04:28:44;;;;;;;;;2.33;1.67;;;;;-147.17;100.00;49909.00;5053430;28;51019;-64
2022/01/03 04:31:10;;;;;;;;;1.67;1.00;;;;;-147.17;100.00;49916.88;5053008;28;51136;-62
2022/01/03 04:33:35;;;;;;;;;5.67;2.00;;;;;-147.17;100.00;49938.50;5053685;28;51201;-62
2022/01/03 04:36:01;;;;;;;;;4.33;3.00;;;;;-147.17;100.00;49914.91;5054316;28;51004;-63
2022/01/03 04:38:27;;;;;;;;;1.67;1.67;;;;;-147.17;100.00;49946.38;5052864;28;51081;-62
2022/01/03 04:40:52;;;;;;;;;2.00;1.67;;;;;-147.17;100.00;49928.66;5053986;28;51171;-62
2022/01/03 04:43:17;;;;;;;;;4.00;3.00;;;;;-147.17;100.00;49922.78;5053621;28;53568;-62
2022/01/03 04:45:43;;;;;;;;;4.00;2.67;;;;;-147.17;100.00;49940.47;5054400;28;51044;-62
2022/01/03 04:48:08;;;;;;;;;2.67;2.00;;;;;-147.17;100.00;49958.19;5052770;28;51073;-62
2022/01/03 04:50:34;;;;;;;;;2.33;1.00;;;;;-147.17;100.00;49936.53;5054466;28;50943;-62
2022/01/03 04:52:59;;;;;;;;;3.00;2.67;;;;;-147.17;100.00;49926.69;5052404;28;51173;-62
2022/01/03 04:55:25;;;;;;;;;3.00;1.00;;;;;-147.17;100.00;49948.34;5053373;28;51025;-62
2022/01/03 04:57:50;;;;;;;;;2.00;1.67;;;;;-147.17;100.00;49934.56;5051718;28;51188;-62
2022/01/03 05:00:16;;;;;;;;;1.00;1.00;;;;;-147.17;100.00;49914.91;5052650;28;51088;-62
2022/01/03 05:02:42;;;;;;;;;2.00;1.00;;;;;-147.17;100.00;49918.84;5067334;28;51367;-62
2022/01/03 05:05:07;;;;;;;;;2.00;2.00;;;;;-147.17;100.00;49903.09;5053088;28;51447;-63
2022/01/03 05:07:33;;;;;;;;;0.33;0.33;;;;;-147.17;100.00;49914.91;5053821;28;50907;-62
2022/01/03 05:09:58;;;;;;;;;5.33;2.00;;;;;-147.17;100.00;49928.66;5053952;28;51396;-62
2022/01/03 05:12:23;;;;;;;;;4.67;2.00;;;;;-147.17;100.00;49903.09;5053506;28;50874;-62
2022/01/03 05:14:49;;;;;;;;;2.00;1.00;;;;;-147.17;100.00;49914.91;5045177;28;52093;-62
2022/01/03 05:17:14;;;;;;;;;2.00;2.00;;;;;-147.17;100.00;49922.78;5052665;28;50928;-62
2022/01/03 05:19:40;;;;;;;;;2.33;2.33;;;;;-147.17;100.00;49920.81;5053425;28;50940;-62
2022/01/03 05:22:05;;;;;;;;;2.00;1.00;;;;;-147.17;100.00;49910.97;5053719;28;51095;-62
2022/01/03 05:24:34;;;;;;;;;2.67;2.67;;;;;-147.17;100.00;49918.84;5050552;28;50979;-62
2022/01/03 05:27:00;;;;;;;;;2.67;2.67;;;;;-147.17;100.00;49909.00;5053574;28;50961;-62
2022/01/03 05:29:25;;;;;;;;;1.00;1.00;;;;;-147.17;100.00;49903.09;5051671;28;51165;-62
2022/01/03 05:31:51;;;;;;;;;3.00;3.00;;;;;-147.17;100.00;49910.97;5052960;28;51306;-62
2022/01/03 05:34:17;;;;;;;;;3.33;2.00;;;;;-147.17;100.00;49942.44;5052663;28;51894;-62
2022/01/03 05:36:42;;;;;;;;;3.00;1.33;;;;;-147.17;100.00;49936.53;5050533;28;51224;-62
2022/01/03 05:39:07;;;;;;;;;2.00;2.00;;;;;-147.17;100.00;49903.09;5053263;28;51086;-62
2022/01/03 05:41:33;;;;;;;;;2.00;1.00;;;;;-147.17;100.00;49905.06;5051943;28;51365;-62
2022/01/03 05:43:59;;;;;;;;;2.00;1.00;;;;;-147.17;100.00;49871.59;5051056;28;51185;-62
2022/01/03 05:46:24;;;;;;;;;2.33;2.00;;;;;-147.17;100.00;49887.34;5051831;28;51242;-62
2022/01/03 05:48:52;;;;;;;;;2.00;1.33;;;;;-147.17;100.00;49887.34;5052459;28;51054;-62
2022/01/03 05:51:17;;;;;;;;;2.67;2.33;;;;;-147.17;100.00;49895.22;5053159;28;51247;-63
2022/01/03 05:53:43;;;;;;;;;4.00;3.00;;;;;-147.17;100.00;49891.28;5052082;28;51675;-62
2022/01/03 05:56:09;;;;;;;;;4.33;2.33;;;;;-147.17;100.00;49918.84;5052514;28;51347;-62
2022/01/03 05:58:35;;;;;;;;;3.00;3.00;;;;;-147.17;100.00;49881.44;5053226;28;50978;-62
2022/01/03 06:01:01;;;;;;;;;2.00;1.67;;;;;-147.17;100.00;49926.69;5052095;28;51331;-62
2022/01/03 06:03:29;;;;;;;;;3.00;2.00;;;;;-147.17;100.00;49887.34;5051487;28;52797;-62
2022/01/03 06:08:20;;;;;;;;;5.00;3.00;;;;;-147.17;100.00;49897.19;5050988;28;51255;-62
2022/01/03 06:10:45;;;;;;;;;1.67;1.00;;;;;-147.17;100.00;49879.47;5052489;28;51094;-62
2022/01/03 06:13:11;;;;;;;;;5.67;2.00;;;;;-147.17;100.00;49897.19;5050925;28;51974;-61
2022/01/03 06:15:38;;;;;;;;;7.00;3.00;;;;;-147.17;100.00;49910.97;5052365;28;51161;-62
2022/01/03 06:18:04;;;;;;;;;4.33;3.00;;;;;-147.17;100.00;49936.53;5052950;28;50994;-63
2022/01/03 06:20:31;;;;;;;;;2.33;2.00;;;;;-147.17;100.00;49916.88;5052549;28;51057;-62
2022/01/03 06:22:56;;;;;;;;;2.33;2.00;;;;;-147.17;100.00;49895.22;5052357;28;52369;-62
2022/01/03 06:25:22;;;;;;;;;2.00;1.67;;;;;-147.17;100.00;49875.53;5051894;28;51072;-62
2022/01/03 06:27:47;;;;;;;;;2.33;2.00;;;;;-147.17;100.00;49901.13;5052379;28;51244;-62
2022/01/03 06:30:13;;;;;;;;;3.33;2.33;;;;;-147.17;100.00;49930.63;5052673;28;51086;-62
2022/01/03 06:32:39;;;;;;;;;2.67;2.00;;;;;-147.17;100.00;49883.41;5046185;28;52161;-62
2022/01/03 06:35:05;;;;;;;;;3.67;3.00;;;;;-147.17;100.00;49871.59;5050201;28;51175;-62
2022/01/03 06:37:30;;;;;;;;;3.67;3.00;;;;;-147.17;100.00;49918.84;5049764;28;51165;-61
2022/01/03 06:39:56;;;;;;;;;4.00;3.00;;;;;-147.17;100.00;49907.03;5050002;28;51196;-62
2022/01/03 06:42:21;;;;;;;;;2.00;1.33;;;;;-147.17;100.00;49871.59;5053602;28;52858;-62
2022/01/03 06:44:48;;;;;;;;;2.33;1.33;;;;;-147.17;100.00;49887.34;5054125;28;51012;-62
2022/01/03 06:47:14;;;;;;;;;7.33;3.33;;;;;-147.17;100.00;49920.81;5055673;28;51068;-62
2022/01/03 06:49:40;;;;;;;;;3.33;2.33;;;;;-147.17;100.00;49922.78;5054720;28;51055;-62
2022/01/03 06:52:05;;;;;;;;;3.67;2.00;;;;;-147.17;100.00;49922.78;5054060;28;51864;-62
2022/01/03 06:54:33;;;;;;;;;2.33;1.67;;;;;-147.17;100.00;49879.47;5055262;28;51097;-62
2022/01/03 06:56:58;;;;;;;;;3.33;3.33;;;;;-147.17;100.00;49916.88;5055193;28;51184;-61
2022/01/03 06:59:24;;;;;;;;;3.00;3.00;;;;;-147.17;100.00;49918.84;5053554;28;51115;-61
2022/01/03 07:01:49;;;;;;;;;2.33;1.67;;;;;-147.17;100.00;49928.66;5054655;28;51790;-61
2022/01/03 07:04:15;;;;;;;;;4.67;3.33;;;;;-147.17;100.00;49871.59;5053846;28;50947;-61
2022/01/03 07:06:40;;;;;;;;;2.00;2.00;;;;;-147.17;100.00;49922.78;5055169;28;51002;-61
2022/01/03 07:09:07;;;;;;;;;6.00;4.00;;;;;-147.17;100.00;49897.19;5054813;28;50982;-61
2022/01/03 07:11:33;;;;;;;;;3.00;3.00;;;;;-147.17;100.00;49885.38;5054927;28;51934;-61
2022/01/03 07:19:26;;;;;;;;;7.00;6.67;;;;;-147.17;100.00;49889.31;5041839;28;50991;-62
2022/01/03 07:21:52;;;;;;;;;4.67;3.00;;;;;-147.17;100.00;49879.47;5054515;28;50930;-62
2022/01/03 07:24:17;;;;;;;;;6.00;4.67;;;;;-147.17;100.00;49901.13;5054394;28;51161;-62
2022/01/03 07:26:43;;;;;;;;;4.67;3.33;;;;;-147.17;100.00;49875.53;5053153;28;51091;-62
2022/01/03 07:29:08;;;;;;;;;5.33;4.67;;;;;-147.17;100.00;49926.69;5054347;28;51403;-62
2022/01/03 07:31:34;;;;;;;;;3.00;3.00;;;;;-147.17;100.00;49859.78;5054735;28;51879;-62
2022/01/03 07:33:59;;;;;;;;;6.00;4.33;;;;;-147.17;100.00;49895.22;5054819;28;51377;-62
2022/01/03 07:36:25;;;;;;;;;3.00;2.00;;;;;-147.17;100.00;49863.72;5048205;28;51356;-61
2022/01/03 07:38:50;;;;;;;;;2.67;2.67;;;;;-147.17;100.00;49895.22;5054662;28;51024;-60
2022/01/03 07:41:16;;;;;;;;;4.00;2.00;;;;;-147.17;100.00;49879.47;5053813;28;51085;-62
2022/01/03 07:43:44;;;;;;;;;3.00;3.00;;;;;-147.17;100.00;49873.56;5054549;28;51065;-61
2022/01/03 07:46:09;;;;;;;;;3.00;1.33;;;;;-147.17;100.00;49861.75;5054259;28;51000;-61
2022/01/03 07:48:35;;;;;;;;;3.00;2.00;;;;;-147.17;100.00;49899.16;5054694;28;50897;-61
2022/01/03 07:51:00;;;;;;;;;4.00;3.00;;;;;-147.17;100.00;49922.78;5054386;28;52812;-61
2022/01/03 07:53:27;;;;;;;;;5.33;4.00;;;;;-147.17;100.00;49883.41;5053891;28;51072;-61
2022/01/03 07:55:52;;;;;;;;;7.67;7.67;;;;;-147.17;100.00;49887.34;5054319;28;51096;-62
2022/01/03 07:58:18;;;;;;;;;6.00;5.33;;;;;-147.17;100.00;49899.16;5054269;28;51394;-62
2022/01/03 08:00:45;;;;;;;;;5.00;3.33;;;;;-147.17;100.00;49883.41;5054040;28;51079;-61
2022/01/03 08:03:10;;;;;;;;;3.00;2.33;;;;;-147.17;100.00;49879.47;5054336;28;50963;-60
2022/01/03 08:05:36;;;;;;;;;4.67;3.67;;;;;-147.17;100.00;49863.72;5054417;28;51244;-61
2022/01/03 08:08:03;;;;;;;;;4.67;3.33;;;;;-147.17;100.00;49914.91;5054670;28;51216;-62
2022/01/03 08:10:29;;;;;;;;;5.33;4.33;;;;;-147.17;100.00;49859.78;5053953;28;50918;-62
2022/01/03 08:12:54;;;;;;;;;5.00;3.67;;;;;-147.17;100.00;49893.25;5054258;28;50981;-62
2022/01/03 08:15:20;;;;;;;;;5.67;4.67;;;;;-147.17;100.00;49867.66;5053095;28;51400;-62
2022/01/03 08:17:46;;;;;;;;;4.00;4.00;;;;;-147.17;100.00;49873.56;5052987;28;51196;-62
2022/01/03 08:20:12;;;;;;;;;3.00;2.00;;;;;-147.17;100.00;49891.28;5054006;28;51813;-62
2022/01/03 08:22:38;;;;;;;;;9.33;6.00;;;;;-147.17;100.00;49865.69;5054401;28;51031;-63
2022/01/03 08:25:04;;;;;;;;;3.00;2.00;;;;;-147.17;100.00;49820.41;5053552;28;51138;-62
2022/01/03 08:27:29;;;;;;;;;4.00;3.00;;;;;-147.17;100.00;49867.66;5054321;28;51065;-62
2022/01/03 08:29:55;;;;;;;;;6.00;4.00;;;;;-147.17;100.00;49859.78;5052578;28;51965;-63
2022/01/03 08:32:21;;;;;;;;;4.67;2.67;;;;;-147.17;100.00;49853.88;5047677;28;51047;-63
2022/01/03 08:34:47;;;;;;;;;6.00;4.67;;;;;-147.17;100.00;49824.34;5050466;28;54618;-62
2022/01/03 08:37:12;;;;;;;;;3.00;2.00;;;;;-147.17;100.00;49810.56;5048517;28;51289;-63
2022/01/03 08:39:38;;;;;;;;;5.00;4.33;;;;;-147.17;100.00;49804.66;5054823;28;53472;-61
2022/01/03 08:42:04;;;;;;;;;3.67;2.00;;;;;-147.17;100.00;49822.38;5047831;28;54709;-63
2022/01/03 08:44:29;;;;;;;;;11.67;11.33;;;;;-147.17;100.00;49812.53;5051782;28;51050;-60
2022/01/03 08:46:55;;;;;;;;;9.67;7.00;;;;;-147.17;100.00;49834.19;5048183;28;51275;-61
2022/01/03 08:49:20;;;;;;;;;4.33;2.00;;;;;-147.17;100.00;49824.34;5048010;28;51396;-60
2022/01/03 08:51:46;;;;;;;;;5.00;3.67;;;;;-147.17;100.00;49824.34;5049374;28;51131;-62
2022/01/03 08:54:12;;;;;;;;;6.00;4.33;;;;;-147.17;100.00;49800.72;5047235;28;51145;-61
2022/01/03 08:56:38;;;;;;;;;4.00;2.67;;;;;-147.17;100.00;49790.88;5051649;28;52134;-62
2022/01/03 08:59:04;;;;;;;;;3.00;3.00;;;;;-147.17;100.00;49826.31;5046351;28;51180;-62
2022/01/03 09:01:30;;;;;;;;;4.33;2.67;;;;;-147.17;100.00;49784.97;5049842;28;51200;-61
2022/01/03 09:03:55;;;;;;;;;4.33;3.33;;;;;-147.17;100.00;49806.63;5050962;28;51103;-61
2022/01/03 09:06:21;;;;;;;;;5.67;3.00;;;;;-147.17;100.00;49777.13;5045562;28;51418;-61
2022/01/03 09:08:47;;;;;;;;;2.33;2.00;;;;;-147.17;100.00;49779.09;5047133;28;51933;-61
2022/01/03 09:11:14;;;;;;;;;5.33;4.33;;;;;-147.17;100.00;49733.81;5048086;28;51229;-61
2022/01/03 09:13:39;;;;;;;;;5.00;4.00;;;;;-147.17;100.00;49796.78;5048700;28;51006;-61
2022/01/03 09:16:07;;;;;;;;;5.33;4.00;;;;;-147.17;100.00;49786.94;5050823;28;51045;-61
2022/01/03 09:18:34;;;;;;;;;4.67;2.67;;;;;-147.17;100.00;49794.81;5047140;28;51419;-61
2022/01/03 09:21:00;;;;;;;;;3.67;3.33;;;;;-147.17;100.00;49796.78;5052411;28;51041;-62
2022/01/03 09:23:30;;;;;;;;;4.33;3.33;;;;;-147.17;100.00;49788.91;5047532;28;51158;-62
2022/01/03 09:28:56;;;;;;;;;3.33;2.00;;;;;-147.17;100.00;49771.22;5047679;28;51075;-62
2022/01/03 09:31:37;;;;;;;;;5.00;5.00;;;;;-147.17;100.00;49784.97;5046776;28;51183;-62
2022/01/03 09:34:06;;;;;;;;;2.00;2.00;;;;;-147.17;100.00;49802.69;5052602;28;51125;-63
2022/01/03 09:36:32;;;;;;;;;6.67;3.33;;;;;-147.17;100.00;49806.63;5051601;28;51444;-63
2022/01/03 09:38:59;;;;;;;;;3.67;2.00;;;;;-147.17;100.00;49761.38;5049493;28;52818;-62
2022/01/03 09:41:27;;;;;;;;;5.67;4.00;;;;;-147.17;100.00;49775.16;5045807;28;51238;-61
2022/01/03 09:43:56;;;;;;;;;2.50;1.50;;;;;-147.17;100.00;49761.38;5052376;28;51109;-61
2022/01/03 09:46:42;;;;;;;;;4.33;3.33;;;;;-147.17;100.00;49775.16;5052076;28;51357;-61
2022/01/03 09:49:10;;;;;;;;;3.33;2.33;;;;;-147.17;100.00;49771.22;5051428;28;51723;-61
2022/01/03 09:51:37;;;;;;;;;1.33;1.00;;;;;-147.17;100.00;49836.16;5050839;28;51256;-61
2022/01/03 09:54:14;;;;;;;;;3.00;2.33;;;;;-147.17;100.00;49808.59;5051924;28;51227;-62
2022/01/03 09:56:41;;;;;;;;;4.67;4.00;;;;;-147.17;100.00;49816.47;5052830;28;51060;-62
2022/01/03 09:59:07;;;;;;;;;4.67;3.00;;;;;-147.17;100.00;49836.16;5052227;28;51804;-62
2022/01/03 10:01:34;;;;;;;;;4.33;3.00;;;;;-147.17;100.00;49792.84;5046054;28;51037;-62
2022/01/03 10:04:00;;;;;;;;;4.67;2.67;;;;;-147.17;100.00;49808.59;5052384;28;51136;-61
2022/01/03 10:06:27;;;;;;;;;4.00;2.00;;;;;-147.17;100.00;49804.66;5052289;28;51174;-61
2022/01/03 10:08:53;;;;;;;;;4.67;3.67;;;;;-147.17;100.00;49844.03;5051790;28;52941;-61
2022/01/03 10:11:21;;;;;;;;;5.67;3.33;;;;;-147.17;100.00;49851.91;5039656;28;51185;-61
2022/01/03 10:13:46;;;;;;;;;3.33;3.00;;;;;-147.17;100.00;49818.44;5052008;28;51053;-61
2022/01/03 10:16:12;;;;;;;;;3.33;3.00;;;;;-147.17;100.00;49846.00;5051779;28;51296;-61
2022/01/03 10:18:37;;;;;;;;;3.33;2.33;;;;;-147.17;100.00;49840.09;5052244;28;51912;-62
2022/01/03 10:21:04;;;;;;;;;3.00;3.00;;;;;-147.17;100.00;49830.25;5051098;28;51131;-60
2022/01/03 10:23:31;;;;;;;;;4.33;3.00;;;;;-147.17;100.00;49844.03;5034101;28;50983;-62
2022/01/03 10:26:17;;;;;;;;;5.67;2.67;;;;;-147.17;100.00;49893.25;5050203;28;51282;-62
2022/01/03 10:28:43;;;;;;;;;4.00;3.50;;;;;-147.17;100.00;49861.75;5039361;28;52256;-61
2022/01/03 10:31:22;;;;;;;;;3.00;2.00;;;;;-147.17;100.00;49840.09;5047224;28;51012;-62
2022/01/03 10:34:04;;;;;;;;;3.00;3.00;;;;;-147.17;100.00;49875.53;5049413;28;51043;-61
2022/01/03 10:36:32;;;;;;;;;4.00;4.00;;;;;-147.17;100.00;49840.09;5052287;28;51289;-62
2022/01/03 10:38:59;;;;;;;;;5.00;4.33;;;;;-147.17;100.00;49853.88;5045970;28;52736;-62
2022/01/03 10:41:25;;;;;;;;;4.00;3.67;;;;;-147.17;100.00;49869.63;5044597;28;51035;-62
2022/01/03 10:43:56;;;;;;;;;4.00;4.00;;;;;-147.17;100.00;49891.28;5050447;28;50997;-62
2022/01/03 10:46:26;;;;;;;;;5.00;4.67;;;;;-147.17;100.00;49895.22;5051807;28;51062;-62
2022/01/03 10:48:55;;;;;;;;;4.00;3.00;;;;;-147.17;100.00;49838.13;5041505;28;53299;-62
2022/01/03 10:51:23;;;;;;;;;5.00;4.00;;;;;-147.17;100.00;49883.41;5051170;28;51328;-62
2022/01/03 10:53:51;;;;;;;;;5.67;4.67;;;;;-147.17;100.00;49887.34;5050432;28;51263;-62
2022/01/03 10:56:48;;;;;;;;;4.00;4.00;;;;;-147.17;100.00;49909.00;5045670;28;51206;-62
2022/01/03 10:59:22;;;;;;;;;5.00;4.00;;;;;-147.17;100.00;49881.44;5042098;28;51388;-62
2022/01/03 11:01:56;;;;;;;;;4.00;2.33;;;;;-147.17;100.00;49905.06;5050152;28;51095;-62
2022/01/03 11:13:10;;;;;;;;;5.00;3.00;;;;;-147.17;100.00;49914.91;5042142;28;51191;-61
2022/01/03 11:15:42;;;;;;;;;2.33;1.00;;;;;-147.17;100.00;49940.47;5065688;28;52282;-62
2022/01/03 11:18:09;;;;;;;;;4.67;4.33;;;;;-147.17;100.00;49914.91;5041529;28;51137;-61
2022/01/03 11:20:34;;;;;;;;;4.67;3.67;;;;;-147.17;100.00;49885.38;5034704;28;51937;-61
2022/01/03 11:23:00;;;;;;;;;3.67;2.00;;;;;-147.17;100.00;49954.25;5042518;28;51109;-61
2022/01/03 11:25:30;;;;;;;;;2.00;1.00;;;;;-147.17;100.00;49934.56;5043216;28;51179;-61
2022/01/03 11:27:55;;;;;;;;;4.33;4.00;;;;;-147.17;100.00;49924.72;5041946;28;51502;-62
2022/01/03 11:30:22;;;;;;;;;4.00;3.00;;;;;-147.17;100.00;49977.88;5044362;28;51236;-62
2022/01/03 11:32:49;;;;;;;;;7.33;4.33;;;;;-147.17;100.00;49944.41;5044502;28;51406;-62